Time;durP1;ratioP1;P1;durP2;ratioP2;P2;SDS_P1;SDS_P2;PMS_P1;PMS_P2;Temp;Humidity;BMP_temperature;BMP_pressure;BME280_temperature;BME280_humidity;BME280_pressure;Samples;Min_cycle;Max_cycle;Signal;HPM_P1;HPM_P2
2023/11/22 07:04:48;;;;;;;0.80;0.80;;;;;;;;;;5052292;23;20162;-86
2023/11/22 07:07:14;;;;;;;0.77;0.77;;;;;;;;;;4979179;28;20129;-88
2023/11/22 07:09:44;;;;;;;1.05;0.68;;;;;;;;;;4979204;28;20026;-87
2023/11/22 10:24:21;;;;;;;1.73;0.70;;;;;;;;;;4947139;28;20127;-89
2023/11/22 10:26:46;;;;;;;0.60;0.60;;;;;;;;;;4977698;28;20755;-89
2023/11/22 21:33:37;;;;;;;1.58;1.48;;;;;;;;;;5724751;23;20500;-92
2023/11/22 21:36:03;;;;;;;5.10;4.70;;;;;;;;;;4967013;28;20039;-90
2023/11/22 21:38:29;;;;;;;2.85;2.65;;;;;;;;;;4967962;28;20022;-90
2023/11/22 21:40:54;;;;;;;2.22;2.03;;;;;;;;;;4978396;28;20057;-90
2023/11/22 21:43:24;;;;;;;2.22;1.38;;;;;;;;;;4964588;28;20035;-92
2023/11/22 21:45:52;;;;;;;3.33;1.65;;;;;;;;;;4960103;28;20123;-91
2023/11/22 21:48:20;;;;;;;1.80;1.70;;;;;;;;;;4960391;28;20038;-93
2023/11/22 21:50:46;;;;;;;1.95;1.70;;;;;;;;;;4972696;28;20022;-92
2023/11/22 21:53:12;;;;;;;1.40;1.30;;;;;;;;;;4978758;28;20093;-93
2023/11/22 21:55:38;;;;;;;1.52;1.42;;;;;;;;;;4978293;28;20031;-91
2023/11/22 21:58:03;;;;;;;1.20;1.20;;;;;;;;;;4978465;28;20030;-91
2023/11/22 22:00:30;;;;;;;2.38;1.30;;;;;;;;;;4961625;28;20548;-92
2023/11/22 22:02:56;;;;;;;1.73;1.63;;;;;;;;;;4958542;28;20055;-91
2023/11/22 22:05:21;;;;;;;1.33;1.27;;;;;;;;;;4957755;28;20042;-91
2023/11/22 22:07:47;;;;;;;1.23;1.15;;;;;;;;;;4957817;28;20027;-92
2023/11/22 22:10:13;;;;;;;1.10;0.90;;;;;;;;;;4958746;28;20030;-90
2023/11/22 22:12:38;;;;;;;1.15;1.13;;;;;;;;;;4958575;28;20359;-93
2023/11/22 22:15:05;;;;;;;0.90;0.90;;;;;;;;;;4960814;28;20047;-88
2023/11/22 22:17:33;;;;;;;1.20;1.10;;;;;;;;;;5006424;28;20492;-90
2023/11/22 22:19:59;;;;;;;1.10;1.10;;;;;;;;;;5007745;28;20027;-94
2023/11/22 22:22:24;;;;;;;1.80;1.50;;;;;;;;;;4985251;28;20060;-95
2023/11/22 22:24:50;;;;;;;1.00;0.90;;;;;;;;;;4984294;28;20423;-94
2023/11/22 22:27:15;;;;;;;1.50;1.23;;;;;;;;;;4986533;28;20030;-96
2023/11/22 22:29:41;;;;;;;1.60;1.50;;;;;;;;;;4986321;28;20026;-95
2023/11/22 22:32:06;;;;;;;2.30;2.10;;;;;;;;;;4987418;28;20030;-90
2023/11/22 22:34:33;;;;;;;1.60;1.50;;;;;;;;;;5007862;28;20084;-90
2023/11/22 22:37:02;;;;;;;2.40;1.30;;;;;;;;;;4995980;28;20022;-90
2023/11/22 22:39:32;;;;;;;1.48;1.25;;;;;;;;;;4994169;28;20038;-88
2023/11/22 22:41:59;;;;;;;1.40;1.30;;;;;;;;;;4998256;28;20568;-89
2023/11/22 22:44:26;;;;;;;1.77;1.40;;;;;;;;;;4998142;28;20034;-94
2023/11/22 22:46:54;;;;;;;1.08;1.08;;;;;;;;;;4985848;28;20030;-92
2023/11/22 22:49:20;;;;;;;2.42;1.38;;;;;;;;;;4982086;28;20073;-92
2023/11/22 22:51:45;;;;;;;1.50;1.30;;;;;;;;;;4999477;28;20473;-95
2023/11/22 22:54:11;;;;;;;1.30;1.20;;;;;;;;;;4982281;28;20113;-96
2023/11/22 22:56:36;;;;;;;1.45;1.27;;;;;;;;;;4998785;28;20381;-95
2023/11/22 22:59:02;;;;;;;1.35;1.27;;;;;;;;;;4997974;28;20034;-93
2023/11/22 23:01:28;;;;;;;1.30;1.20;;;;;;;;;;4980648;28;20066;-94
2023/11/22 23:03:53;;;;;;;1.25;1.15;;;;;;;;;;4980955;28;20030;-95
2023/11/22 23:06:23;;;;;;;1.30;1.20;;;;;;;;;;4980886;28;20019;-96
2023/11/22 23:08:53;;;;;;;1.25;1.15;;;;;;;;;;4980887;28;20026;-93
2023/11/22 23:11:23;;;;;;;1.58;1.05;;;;;;;;;;4980466;28;20073;-93
2023/11/22 23:13:50;;;;;;;1.50;1.40;;;;;;;;;;4980449;28;20040;-94
2023/11/22 23:16:19;;;;;;;1.52;1.40;;;;;;;;;;4980393;28;20034;-90
2023/11/22 23:18:45;;;;;;;1.30;1.20;;;;;;;;;;4980899;28;20054;-92
